SWA862 KSAN-KPHX
Flight info
| Callsign | SWA862 |
|---|---|
| Flight time | 0h 51m |
| Altitude | 33000 |
| Route | ZZOOO4 HOGGZ HYDRR1 |
| Aircraft | B738/M-SDE2E3FGHIRWXY/LB1 |
Departure
| Time | 2026-04-23 02:30 |
|---|---|
| Airport | San Diego International Airport (KSAN) |
Arrival
| Time | 2026-04-23 03:21 |
|---|---|
| Airport | Phoenix Sky Harbor International Airport (KPHX) |
| Time | Latitude | Longitude | Altitude | Speed | Heading |
|---|---|---|---|---|---|
| 2026-04-23 01:40 | 32.73316 | -117.19683 | 22 ft | 0 kts | 140° |
| 2026-04-23 01:43 | 32.73316 | -117.19684 | 22 ft | 0 kts | 140° |
| 2026-04-23 01:54 | 32.73317 | -117.19684 | 22 ft | 0 kts | 140° |
| 2026-04-23 02:03 | 32.73317 | -117.19685 | 22 ft | 0 kts | 140° |
| 2026-04-23 02:16 | 32.73323 | -117.19690 | 24 ft | 9 kts | 133° |
| 2026-04-23 02:16 | 32.73332 | -117.19711 | 22 ft | 10 kts | 62° |
| 2026-04-23 02:17 | 32.73314 | -117.19730 | 25 ft | 10 kts | 20° |
| 2026-04-23 02:17 | 32.73310 | -117.19732 | 24 ft | 42 kts | 19° |
| 2026-04-23 02:25 | 32.73315 | -117.19730 | 22 ft | 3 kts | 19° |
| 2026-04-23 02:25 | 32.73354 | -117.19714 | 22 ft | 9 kts | 18° |
| 2026-04-23 02:25 | 32.73416 | -117.19660 | 22 ft | 12 kts | 83° |
| 2026-04-23 02:25 | 32.73396 | -117.19561 | 23 ft | 13 kts | 107° |
| 2026-04-23 02:26 | 32.73367 | -117.19442 | 23 ft | 17 kts | 105° |
| 2026-04-23 02:26 | 32.73330 | -117.19283 | 24 ft | 22 kts | 105° |
| 2026-04-23 02:26 | 32.73283 | -117.19087 | 22 ft | 26 kts | 108° |
| 2026-04-23 02:26 | 32.73227 | -117.18864 | 23 ft | 30 kts | 106° |
| 2026-04-23 02:27 | 32.73166 | -117.18611 | 22 ft | 33 kts | 105° |
| 2026-04-23 02:27 | 32.73102 | -117.18346 | 21 ft | 33 kts | 107° |
| 2026-04-23 02:27 | 32.73041 | -117.18091 | 22 ft | 31 kts | 105° |
| 2026-04-23 02:27 | 32.72982 | -117.17856 | 21 ft | 21 kts | 108° |
| 2026-04-23 02:28 | 32.72955 | -117.17759 | 22 ft | 12 kts | 108° |
| 2026-04-23 02:28 | 32.72954 | -117.17684 | 22 ft | 0 kts | 75° |
| 2026-04-23 02:29 | 32.72979 | -117.17623 | 23 ft | 19 kts | 41° |
| 2026-04-23 02:29 | 32.73070 | -117.17781 | 22 ft | 56 kts | 287° |
| 2026-04-23 02:30 | 32.73266 | -117.18583 | 29 ft | 139 kts | 289° |
| 2026-04-23 02:30 | 32.73555 | -117.19799 | 686 ft | 162 kts | 286° |
| 2026-04-23 02:30 | 32.73856 | -117.21083 | 1848 ft | 159 kts | 288° |
| 2026-04-23 02:30 | 32.74178 | -117.22408 | 2510 ft | 182 kts | 289° |
| 2026-04-23 02:31 | 32.74568 | -117.23985 | 2799 ft | 213 kts | 289° |
| 2026-04-23 02:31 | 32.74991 | -117.25720 | 3411 ft | 222 kts | 288° |
| 2026-04-23 02:31 | 32.75415 | -117.27476 | 4121 ft | 225 kts | 287° |
| 2026-04-23 02:31 | 32.75850 | -117.29274 | 4874 ft | 227 kts | 287° |
| 2026-04-23 02:32 | 32.76290 | -117.31094 | 5559 ft | 231 kts | 287° |
| 2026-04-23 02:32 | 32.76491 | -117.33003 | 6254 ft | 237 kts | 265° |
| 2026-04-23 02:32 | 32.75915 | -117.34866 | 6876 ft | 248 kts | 240° |
| 2026-04-23 02:32 | 32.74691 | -117.36301 | 7565 ft | 255 kts | 215° |
| 2026-04-23 02:33 | 32.72977 | -117.36981 | 8293 ft | 268 kts | 187° |
| 2026-04-23 02:33 | 32.71106 | -117.36608 | 9171 ft | 280 kts | 159° |
| 2026-04-23 02:33 | 32.69501 | -117.35263 | 10047 ft | 290 kts | 135° |
| 2026-04-23 02:33 | 32.68278 | -117.33307 | 10760 ft | 298 kts | 126° |
| 2026-04-23 02:34 | 32.67111 | -117.31242 | 11489 ft | 304 kts | 126° |
| 2026-04-23 02:34 | 32.65910 | -117.29180 | 12218 ft | 309 kts | 127° |
| 2026-04-23 02:34 | 32.64652 | -117.27078 | 12985 ft | 315 kts | 127° |
| 2026-04-23 02:34 | 32.63417 | -117.24888 | 13714 ft | 322 kts | 115° |
| 2026-04-23 02:35 | 32.62837 | -117.22284 | 14144 ft | 337 kts | 95° |
| 2026-04-23 02:35 | 32.62610 | -117.19410 | 14330 ft | 362 kts | 93° |
| 2026-04-23 02:35 | 32.62380 | -117.16368 | 14557 ft | 384 kts | 94° |
| 2026-04-23 02:35 | 32.62110 | -117.13159 | 15037 ft | 395 kts | 95° |
| 2026-04-23 02:36 | 32.62110 | -117.09898 | 15698 ft | 397 kts | 77° |
| 2026-04-23 02:36 | 32.62948 | -117.06798 | 16471 ft | 395 kts | 65° |
| 2026-04-23 02:36 | 32.63997 | -117.03760 | 17150 ft | 400 kts | 65° |
| 2026-04-23 02:36 | 32.65051 | -117.00673 | 17782 ft | 407 kts | 65° |
| 2026-04-23 02:37 | 32.66094 | -116.97531 | 18430 ft | 412 kts | 67° |
| 2026-04-23 02:37 | 32.66809 | -116.94201 | 18966 ft | 421 kts | 85° |
| 2026-04-23 02:37 | 32.66873 | -116.90711 | 19600 ft | 424 kts | 90° |
| 2026-04-23 02:37 | 32.66890 | -116.87231 | 20168 ft | 429 kts | 89° |
| 2026-04-23 02:38 | 32.66928 | -116.83668 | 20718 ft | 435 kts | 89° |
| 2026-04-23 02:38 | 32.66979 | -116.80933 | 21131 ft | 438 kts | 88° |
| 2026-04-23 02:38 | 32.67035 | -116.78412 | 21529 ft | 441 kts | 88° |
| 2026-04-23 02:38 | 32.67122 | -116.74744 | 22109 ft | 446 kts | 89° |
| 2026-04-23 02:39 | 32.67134 | -116.71046 | 22637 ft | 451 kts | 91° |
| 2026-04-23 02:39 | 32.67065 | -116.67300 | 23157 ft | 455 kts | 92° |
| 2026-04-23 02:39 | 32.66975 | -116.63558 | 23697 ft | 460 kts | 92° |
| 2026-04-23 02:39 | 32.66886 | -116.59743 | 24120 ft | 464 kts | 92° |
| 2026-04-23 02:40 | 32.66807 | -116.55878 | 24515 ft | 469 kts | 91° |
| 2026-04-23 02:40 | 32.66736 | -116.52013 | 24948 ft | 473 kts | 91° |
| 2026-04-23 02:40 | 32.66673 | -116.48087 | 25352 ft | 478 kts | 91° |
| 2026-04-23 02:40 | 32.66629 | -116.45419 | 25617 ft | 481 kts | 91° |
| 2026-04-23 02:41 | 32.66633 | -116.40112 | 26137 ft | 487 kts | 86° |
| 2026-04-23 02:41 | 32.66929 | -116.36134 | 26518 ft | 490 kts | 82° |
| 2026-04-23 02:41 | 32.67357 | -116.32096 | 26897 ft | 494 kts | 81° |
| 2026-04-23 02:41 | 32.67814 | -116.28016 | 27284 ft | 498 kts | 81° |
| 2026-04-23 02:42 | 32.68247 | -116.23920 | 27636 ft | 503 kts | 82° |
| 2026-04-23 02:42 | 32.68651 | -116.19773 | 28000 ft | 507 kts | 83° |
| 2026-04-23 02:42 | 32.69030 | -116.15589 | 28398 ft | 510 kts | 83° |
| 2026-04-23 02:42 | 32.69396 | -116.11420 | 28725 ft | 514 kts | 83° |
| 2026-04-23 02:43 | 32.69768 | -116.07169 | 29079 ft | 519 kts | 83° |
| 2026-04-23 02:43 | 32.70145 | -116.02897 | 29438 ft | 522 kts | 83° |
| 2026-04-23 02:43 | 32.70401 | -116.00052 | 29652 ft | 524 kts | 83° |
| 2026-04-23 02:43 | 32.70800 | -115.95727 | 29973 ft | 528 kts | 82° |
| 2026-04-23 02:44 | 32.71204 | -115.91397 | 30395 ft | 527 kts | 82° |
| 2026-04-23 02:44 | 32.71606 | -115.87082 | 30816 ft | 526 kts | 82° |
| 2026-04-23 02:44 | 32.72136 | -115.81345 | 31271 ft | 527 kts | 82° |
| 2026-04-23 02:44 | 32.72405 | -115.78412 | 31496 ft | 528 kts | 82° |
| 2026-04-23 02:45 | 32.72797 | -115.74116 | 31801 ft | 530 kts | 82° |
| 2026-04-23 02:45 | 32.73194 | -115.69736 | 32050 ft | 532 kts | 82° |
| 2026-04-23 02:45 | 32.73589 | -115.65361 | 32446 ft | 532 kts | 82° |
| 2026-04-23 02:45 | 32.73981 | -115.60988 | 32839 ft | 531 kts | 82° |
| 2026-04-23 02:46 | 32.74370 | -115.56662 | 32920 ft | 536 kts | 82° |
| 2026-04-23 02:46 | 32.75086 | -115.47832 | 32911 ft | 533 kts | 85° |
| 2026-04-23 02:47 | 32.75316 | -115.39062 | 32921 ft | 530 kts | 88° |
| 2026-04-23 02:47 | 32.75416 | -115.30343 | 32949 ft | 532 kts | 88° |
| 2026-04-23 02:48 | 32.75572 | -115.21507 | 32942 ft | 534 kts | 88° |
| 2026-04-23 02:48 | 32.75767 | -115.12709 | 32934 ft | 535 kts | 87° |
| 2026-04-23 02:49 | 32.75965 | -115.03839 | 32930 ft | 535 kts | 88° |
| 2026-04-23 02:49 | 32.76150 | -114.95031 | 32935 ft | 535 kts | 88° |
| 2026-04-23 02:50 | 32.76327 | -114.86181 | 32930 ft | 535 kts | 88° |
| 2026-04-23 02:50 | 32.76499 | -114.77319 | 32433 ft | 537 kts | 88° |
| 2026-04-23 02:50 | 32.76581 | -114.72939 | 31889 ft | 535 kts | 88° |
| 2026-04-23 02:51 | 32.76663 | -114.68536 | 31481 ft | 530 kts | 88° |
| 2026-04-23 02:51 | 32.76743 | -114.64153 | 31049 ft | 526 kts | 88° |
| 2026-04-23 02:51 | 32.76820 | -114.59815 | 30628 ft | 522 kts | 88° |
| 2026-04-23 02:51 | 32.76888 | -114.55562 | 30261 ft | 517 kts | 89° |
| 2026-04-23 02:52 | 32.76949 | -114.51311 | 29898 ft | 511 kts | 89° |
| 2026-04-23 02:52 | 32.77006 | -114.47090 | 29317 ft | 509 kts | 89° |
| 2026-04-23 02:52 | 32.77062 | -114.42884 | 28851 ft | 504 kts | 89° |
| 2026-04-23 02:52 | 32.77116 | -114.38776 | 28404 ft | 499 kts | 89° |
| 2026-04-23 02:53 | 32.77169 | -114.34659 | 27933 ft | 494 kts | 89° |
| 2026-04-23 02:53 | 32.77221 | -114.30589 | 27521 ft | 489 kts | 89° |
| 2026-04-23 02:53 | 32.77272 | -114.26563 | 27077 ft | 486 kts | 89° |
| 2026-04-23 02:53 | 32.77321 | -114.22556 | 26637 ft | 481 kts | 89° |
| 2026-04-23 02:54 | 32.77368 | -114.18642 | 26213 ft | 477 kts | 89° |
| 2026-04-23 02:54 | 32.77414 | -114.14700 | 25789 ft | 474 kts | 89° |
| 2026-04-23 02:54 | 32.77458 | -114.10772 | 25362 ft | 475 kts | 89° |
| 2026-04-23 02:54 | 32.77507 | -114.06755 | 25012 ft | 497 kts | 88° |
| 2026-04-23 02:55 | 32.77766 | -114.02611 | 24961 ft | 509 kts | 83° |
| 2026-04-23 02:55 | 32.78242 | -113.98396 | 24929 ft | 518 kts | 81° |
| 2026-04-23 02:55 | 32.78788 | -113.94175 | 24923 ft | 526 kts | 81° |
| 2026-04-23 02:55 | 32.79340 | -113.89850 | 24910 ft | 528 kts | 81° |
| 2026-04-23 02:56 | 32.79852 | -113.85526 | 24897 ft | 525 kts | 82° |
| 2026-04-23 02:56 | 32.80324 | -113.81242 | 24899 ft | 521 kts | 82° |
| 2026-04-23 02:56 | 32.80775 | -113.77020 | 24903 ft | 519 kts | 82° |
| 2026-04-23 02:56 | 32.81244 | -113.72767 | 24900 ft | 518 kts | 79° |
| 2026-04-23 02:57 | 32.82285 | -113.68684 | 24904 ft | 515 kts | 62° |
| 2026-04-23 02:57 | 32.84179 | -113.65079 | 24470 ft | 512 kts | 45° |
| 2026-04-23 02:57 | 32.86572 | -113.61976 | 24123 ft | 504 kts | 43° |
| 2026-04-23 02:57 | 32.88948 | -113.58917 | 23737 ft | 498 kts | 43° |
| 2026-04-23 02:58 | 32.91149 | -113.56038 | 23365 ft | 496 kts | 44° |
| 2026-04-23 02:58 | 32.93419 | -113.53021 | 22950 ft | 493 kts | 44° |
| 2026-04-23 02:58 | 32.95694 | -113.49963 | 22584 ft | 489 kts | 45° |
| 2026-04-23 02:58 | 32.97933 | -113.46934 | 22203 ft | 485 kts | 45° |
| 2026-04-23 02:59 | 33.00163 | -113.43913 | 21825 ft | 482 kts | 45° |
| 2026-04-23 02:59 | 33.02351 | -113.40953 | 21470 ft | 479 kts | 45° |
| 2026-04-23 02:59 | 33.04544 | -113.37986 | 21116 ft | 476 kts | 45° |
| 2026-04-23 02:59 | 33.06728 | -113.35033 | 20761 ft | 473 kts | 45° |
| 2026-04-23 03:00 | 33.08905 | -113.32092 | 20409 ft | 470 kts | 45° |
| 2026-04-23 03:00 | 33.11067 | -113.29170 | 20064 ft | 468 kts | 45° |
| 2026-04-23 03:00 | 33.13193 | -113.26295 | 19725 ft | 466 kts | 45° |
| 2026-04-23 03:00 | 33.15339 | -113.23390 | 19379 ft | 464 kts | 45° |
| 2026-04-23 03:01 | 33.17469 | -113.20503 | 19035 ft | 462 kts | 45° |
| 2026-04-23 03:01 | 33.19584 | -113.17632 | 18692 ft | 459 kts | 45° |
| 2026-04-23 03:01 | 33.21689 | -113.14776 | 18343 ft | 457 kts | 45° |
| 2026-04-23 03:01 | 33.23779 | -113.11936 | 17993 ft | 454 kts | 45° |
| 2026-04-23 03:02 | 33.25816 | -113.09058 | 17647 ft | 452 kts | 52° |
| 2026-04-23 03:02 | 33.27186 | -113.05726 | 17351 ft | 454 kts | 71° |
| 2026-04-23 03:02 | 33.27706 | -113.02022 | 17022 ft | 453 kts | 88° |
| 2026-04-23 03:02 | 33.27768 | -112.98234 | 16701 ft | 458 kts | 89° |
| 2026-04-23 03:03 | 33.27799 | -112.94412 | 16345 ft | 456 kts | 89° |
| 2026-04-23 03:03 | 33.27845 | -112.90625 | 16023 ft | 452 kts | 89° |
| 2026-04-23 03:03 | 33.27922 | -112.86876 | 15686 ft | 450 kts | 88° |
| 2026-04-23 03:03 | 33.28016 | -112.83186 | 15351 ft | 448 kts | 88° |
| 2026-04-23 03:04 | 33.28177 | -112.79476 | 15021 ft | 446 kts | 85° |
| 2026-04-23 03:04 | 33.28499 | -112.75795 | 14698 ft | 443 kts | 83° |
| 2026-04-23 03:04 | 33.28884 | -112.72150 | 14378 ft | 441 kts | 83° |
| 2026-04-23 03:04 | 33.29276 | -112.68523 | 14044 ft | 438 kts | 83° |
| 2026-04-23 03:05 | 33.29650 | -112.64916 | 13720 ft | 436 kts | 83° |
| 2026-04-23 03:05 | 33.30005 | -112.61316 | 13351 ft | 433 kts | 84° |
| 2026-04-23 03:05 | 33.30341 | -112.57785 | 13012 ft | 430 kts | 84° |
| 2026-04-23 03:05 | 33.30669 | -112.54259 | 12679 ft | 422 kts | 84° |
| 2026-04-23 03:06 | 33.30987 | -112.50810 | 12350 ft | 410 kts | 84° |
| 2026-04-23 03:06 | 33.31294 | -112.47457 | 12048 ft | 400 kts | 84° |
| 2026-04-23 03:06 | 33.31595 | -112.44181 | 11754 ft | 390 kts | 84° |
| 2026-04-23 03:06 | 33.31883 | -112.41038 | 11470 ft | 381 kts | 85° |
| 2026-04-23 03:07 | 33.32167 | -112.37928 | 11193 ft | 370 kts | 85° |
| 2026-04-23 03:07 | 33.32440 | -112.34941 | 10929 ft | 353 kts | 85° |
| 2026-04-23 03:07 | 33.32701 | -112.32088 | 10710 ft | 337 kts | 85° |
| 2026-04-23 03:07 | 33.32951 | -112.29350 | 10496 ft | 323 kts | 85° |
| 2026-04-23 03:08 | 33.33191 | -112.26724 | 10309 ft | 313 kts | 85° |
| 2026-04-23 03:08 | 33.33421 | -112.24183 | 9977 ft | 310 kts | 85° |
| 2026-04-23 03:08 | 33.33652 | -112.21619 | 9451 ft | 310 kts | 85° |
| 2026-04-23 03:08 | 33.33884 | -112.19057 | 8928 ft | 308 kts | 85° |
| 2026-04-23 03:09 | 33.34116 | -112.16486 | 8563 ft | 309 kts | 84° |
| 2026-04-23 03:09 | 33.34341 | -112.13973 | 8306 ft | 306 kts | 84° |
| 2026-04-23 03:09 | 33.34568 | -112.11449 | 8086 ft | 301 kts | 85° |
| 2026-04-23 03:09 | 33.34784 | -112.08959 | 7802 ft | 299 kts | 86° |
| 2026-04-23 03:10 | 33.34817 | -112.06495 | 7470 ft | 299 kts | 92° |
| 2026-04-23 03:10 | 33.34753 | -112.04015 | 7204 ft | 297 kts | 94° |
| 2026-04-23 03:10 | 33.34689 | -112.01548 | 6930 ft | 295 kts | 92° |
| 2026-04-23 03:10 | 33.34642 | -111.99098 | 6554 ft | 297 kts | 92° |
| 2026-04-23 03:11 | 33.34603 | -111.96626 | 6279 ft | 295 kts | 91° |
| 2026-04-23 03:11 | 33.34570 | -111.94214 | 6034 ft | 291 kts | 91° |
| 2026-04-23 03:11 | 33.34563 | -111.91787 | 5745 ft | 290 kts | 90° |
| 2026-04-23 03:11 | 33.34586 | -111.89412 | 5697 ft | 280 kts | 89° |
| 2026-04-23 03:12 | 33.34617 | -111.87122 | 5620 ft | 270 kts | 89° |
| 2026-04-23 03:12 | 33.34652 | -111.84939 | 5560 ft | 259 kts | 90° |
| 2026-04-23 03:12 | 33.34677 | -111.82840 | 5501 ft | 244 kts | 89° |
| 2026-04-23 03:12 | 33.34713 | -111.80862 | 5373 ft | 231 kts | 90° |
| 2026-04-23 03:13 | 33.34732 | -111.78947 | 5032 ft | 230 kts | 90° |
| 2026-04-23 03:13 | 33.34739 | -111.77068 | 4965 ft | 226 kts | 90° |
| 2026-04-23 03:13 | 33.34751 | -111.75158 | 4966 ft | 232 kts | 90° |
| 2026-04-23 03:13 | 33.34766 | -111.73210 | 4978 ft | 237 kts | 91° |
| 2026-04-23 03:14 | 33.34762 | -111.71202 | 4751 ft | 243 kts | 91° |
| 2026-04-23 03:14 | 33.34981 | -111.69213 | 4470 ft | 239 kts | 66° |
| 2026-04-23 03:14 | 33.35936 | -111.67698 | 4225 ft | 229 kts | 33° |
| 2026-04-23 03:14 | 33.37372 | -111.67016 | 4084 ft | 223 kts | 1° |
| 2026-04-23 03:15 | 33.38893 | -111.67269 | 4045 ft | 220 kts | 332° |
| 2026-04-23 03:15 | 33.40076 | -111.68294 | 4013 ft | 208 kts | 307° |
| 2026-04-23 03:15 | 33.40776 | -111.69759 | 4020 ft | 202 kts | 287° |
| 2026-04-23 03:15 | 33.41234 | -111.71365 | 4022 ft | 204 kts | 287° |
| 2026-04-23 03:16 | 33.41689 | -111.72969 | 4012 ft | 203 kts | 287° |
| 2026-04-23 03:16 | 33.42141 | -111.74565 | 4013 ft | 202 kts | 287° |
| 2026-04-23 03:16 | 33.43045 | -111.77750 | 4022 ft | 204 kts | 286° |
| 2026-04-23 03:17 | 33.43505 | -111.79376 | 4023 ft | 205 kts | 287° |
| 2026-04-23 03:17 | 33.43947 | -111.81006 | 3980 ft | 205 kts | 281° |
| 2026-04-23 03:17 | 33.44093 | -111.82683 | 3762 ft | 206 kts | 270° |
| 2026-04-23 03:17 | 33.44091 | -111.84402 | 3499 ft | 203 kts | 269° |
| 2026-04-23 03:18 | 33.44082 | -111.86074 | 3224 ft | 198 kts | 269° |
| 2026-04-23 03:18 | 33.44079 | -111.87698 | 2970 ft | 191 kts | 269° |
| 2026-04-23 03:18 | 33.44079 | -111.89250 | 2746 ft | 186 kts | 269° |
| 2026-04-23 03:18 | 33.44079 | -111.90772 | 2493 ft | 178 kts | 269° |
| 2026-04-23 03:19 | 33.44079 | -111.92202 | 2282 ft | 166 kts | 268° |
| 2026-04-23 03:19 | 33.44080 | -111.93541 | 2097 ft | 154 kts | 269° |
| 2026-04-23 03:19 | 33.44081 | -111.94781 | 1898 ft | 146 kts | 271° |
| 2026-04-23 03:19 | 33.44077 | -111.95991 | 1686 ft | 143 kts | 268° |
| 2026-04-23 03:20 | 33.44072 | -111.97162 | 1523 ft | 138 kts | 272° |
| 2026-04-23 03:20 | 33.44083 | -111.98326 | 1333 ft | 142 kts | 270° |
| 2026-04-23 03:20 | 33.44079 | -111.99523 | 1141 ft | 142 kts | 270° |
| 2026-04-23 03:20 | 33.44084 | -112.00579 | 1128 ft | 106 kts | 270° |
| 2026-04-23 03:21 | 33.44090 | -112.01365 | 1130 ft | 88 kts | 270° |
| 2026-04-23 03:21 | 33.44086 | -112.01736 | 1128 ft | 32 kts | 268° |
| 2026-04-23 03:21 | 33.44064 | -112.02006 | 1118 ft | 22 kts | 237° |
| 2026-04-23 03:21 | 33.44029 | -112.02040 | 1123 ft | 0 kts | 201° |
| 2026-04-23 03:23 | 33.43992 | -112.02024 | 1117 ft | 12 kts | 141° |
| 2026-04-23 03:23 | 33.43975 | -112.01869 | 1124 ft | 24 kts | 89° |
| 2026-04-23 03:23 | 33.43974 | -112.01674 | 1125 ft | 23 kts | 90° |
| 2026-04-23 03:23 | 33.43975 | -112.01469 | 1119 ft | 28 kts | 90° |
| 2026-04-23 03:24 | 33.43975 | -112.01207 | 1126 ft | 35 kts | 90° |
| 2026-04-23 03:24 | 33.43974 | -112.00897 | 1125 ft | 40 kts | 91° |
| 2026-04-23 03:24 | 33.43975 | -112.00573 | 1119 ft | 23 kts | 89° |
| 2026-04-23 03:24 | 33.43926 | -112.00469 | 1119 ft | 16 kts | 173° |
| 2026-04-23 03:25 | 33.43814 | -112.00468 | 1121 ft | 16 kts | 180° |
| 2026-04-23 03:25 | 33.43691 | -112.00468 | 1119 ft | 21 kts | 179° |
| 2026-04-23 03:25 | 33.43513 | -112.00468 | 1118 ft | 29 kts | 180° |
| 2026-04-23 03:25 | 33.43327 | -112.00467 | 1119 ft | 19 kts | 175° |
| 2026-04-23 03:26 | 33.43283 | -112.00355 | 1123 ft | 11 kts | 91° |
| 2026-04-23 03:26 | 33.43283 | -112.00263 | 1124 ft | 11 kts | 89° |
| 2026-04-23 03:26 | 33.43283 | -112.00160 | 1119 ft | 14 kts | 90° |
| 2026-04-23 03:26 | 33.43304 | -112.00052 | 1121 ft | 14 kts | 37° |
| 2026-04-23 03:27 | 33.43359 | -112.00041 | 1118 ft | 2 kts | 359° |
| 2026-04-23 03:27 | 33.43373 | -112.00041 | 1118 ft | 3 kts | 359° |
| 2026-04-23 03:27 | 33.43412 | -112.00041 | 1122 ft | 8 kts | 6° |
| 2026-04-23 03:27 | 33.43429 | -112.00024 | 1118 ft | 0 kts | 69° |
| 2026-04-23 03:28 | 33.43429 | -112.00023 | 1118 ft | 0 kts | 76° |
| 2026-04-23 03:28 | 33.43432 | -112.00004 | 1118 ft | 0 kts | 86° |
| 2026-04-23 03:28 | 33.43431 | -111.99997 | 1123 ft | 0 kts | 94° |
| 2026-04-23 03:29 | 33.43431 | -111.99992 | 1123 ft | 1 kts | 94° |
| 2026-04-23 03:29 | 33.43431 | -111.99986 | 1123 ft | 0 kts | 94° |
| 2026-04-23 03:33 | 33.43431 | -111.99987 | 1123 ft | 0 kts | 94° |